ENVA/TRD METAR and TAF weather

Enter ICAO airport designator
Station Type Date Time Source
ENVA METAR 2020/01/21 21:20 UTC NOAA

ENVA 212120Z 27029KT 8000 DZRA FEW005 SCT015 BKN025 02/01 Q1014 RMK WIND 670FT 29035G52KT


Station Type Date Time Source
ENVA Decoded METAR 2020/01/21 21:20 UTC NOAA

Trondheim / Vaernes, Norway (ENVA) 63-28N 010-56E 17M
Jan 21, 2020 - 04:20 PM EST / 2020.01.21 2120 UTC
Wind: from the W (270 degrees) at 33 MPH (29 KT):0
Visibility: 4 mile(s):0
Sky conditions: mostly cloudy
Weather: drizzle, rain
Temperature: 35 F (2 C)
Windchill: 21 F (-6 C):1
Dew Point: 33 F (1 C)
Relative Humidity: 93%
Pressure (altimeter): 29.94 in. Hg (1014 hPa)
ob: ENVA 212120Z 27029KT 8000 DZRA FEW005 SCT015 BKN025 02/01 Q1014 RMK WIND 670FT 29035G52KT
cycle: 21

Station Type Date Time Source
ENVA TAF 2020/01/21 18:57 UTC NOAA

TAF ENVA 211700Z 2118/2218 27022KT 9999 -SHRASN FEW008 BKN030
TEMPO 2118/2209 28032G45KT
TEMPO 2118/2215 2000 SHRASN BKN008 BKN020CB
BECMG 2206/2209 27015G25KT
BECMG 2216/2218 23005KT

Example: see airport list